sensor_id;sensor_type;location;lat;lon;timestamp;temperature;humidity
67147;DHT22;70072;52.036;5.558;2023-12-14T00:00:30;17.70;73.90
67147;DHT22;70072;52.036;5.558;2023-12-14T00:02:56;17.70;73.90
67147;DHT22;70072;52.036;5.558;2023-12-14T00:05:22;17.70;73.90
67147;DHT22;70072;52.036;5.558;2023-12-14T00:07:47;17.70;73.90
67147;DHT22;70072;52.036;5.558;2023-12-14T00:10:13;17.70;73.80
67147;DHT22;70072;52.036;5.558;2023-12-14T00:12:45;17.70;73.80
67147;DHT22;70072;52.036;5.558;2023-12-14T00:15:13;17.70;73.80
67147;DHT22;70072;52.036;5.558;2023-12-14T00:17:39;17.70;73.80
67147;DHT22;70072;52.036;5.558;2023-12-14T00:20:05;17.70;73.70
67147;DHT22;70072;52.036;5.558;2023-12-14T00:22:31;17.70;73.70
67147;DHT22;70072;52.036;5.558;2023-12-14T00:24:56;17.70;73.70
67147;DHT22;70072;52.036;5.558;2023-12-14T00:27:22;17.70;73.70
67147;DHT22;70072;52.036;5.558;2023-12-14T00:29:48;17.70;73.70
67147;DHT22;70072;52.036;5.558;2023-12-14T00:32:16;17.70;73.70
67147;DHT22;70072;52.036;5.558;2023-12-14T00:34:41;17.70;73.60
67147;DHT22;70072;52.036;5.558;2023-12-14T00:37:07;17.70;73.60
67147;DHT22;70072;52.036;5.558;2023-12-14T00:39:32;17.70;73.60
67147;DHT22;70072;52.036;5.558;2023-12-14T00:41:58;17.70;73.60
67147;DHT22;70072;52.036;5.558;2023-12-14T00:44:24;17.70;73.50
67147;DHT22;70072;52.036;5.558;2023-12-14T00:46:49;17.70;73.50
67147;DHT22;70072;52.036;5.558;2023-12-14T00:49:15;17.60;73.50
67147;DHT22;70072;52.036;5.558;2023-12-14T00:51:43;17.60;73.50
67147;DHT22;70072;52.036;5.558;2023-12-14T00:54:09;17.60;73.40
67147;DHT22;70072;52.036;5.558;2023-12-14T00:56:34;17.60;73.40
67147;DHT22;70072;52.036;5.558;2023-12-14T00:59:02;17.60;73.40
67147;DHT22;70072;52.036;5.558;2023-12-14T01:01:28;17.60;73.40
67147;DHT22;70072;52.036;5.558;2023-12-14T01:03:53;17.60;73.40
67147;DHT22;70072;52.036;5.558;2023-12-14T01:06:19;17.60;73.40
67147;DHT22;70072;52.036;5.558;2023-12-14T01:08:44;17.60;73.30
67147;DHT22;70072;52.036;5.558;2023-12-14T01:11:10;17.60;73.30
67147;DHT22;70072;52.036;5.558;2023-12-14T01:13:36;17.60;73.30
67147;DHT22;70072;52.036;5.558;2023-12-14T01:16:02;17.60;73.30
67147;DHT22;70072;52.036;5.558;2023-12-14T01:18:27;17.60;73.20
67147;DHT22;70072;52.036;5.558;2023-12-14T01:20:53;17.60;73.20
67147;DHT22;70072;52.036;5.558;2023-12-14T01:23:18;17.60;73.20
67147;DHT22;70072;52.036;5.558;2023-12-14T01:25:44;17.60;73.20
67147;DHT22;70072;52.036;5.558;2023-12-14T01:28:12;17.60;73.20
67147;DHT22;70072;52.036;5.558;2023-12-14T01:30:39;17.60;73.10
67147;DHT22;70072;52.036;5.558;2023-12-14T01:33:04;17.60;73.10
67147;DHT22;70072;52.036;5.558;2023-12-14T01:35:30;17.60;73.10
67147;DHT22;70072;52.036;5.558;2023-12-14T01:37:56;17.60;73.10
67147;DHT22;70072;52.036;5.558;2023-12-14T01:40:21;17.60;73.10
67147;DHT22;70072;52.036;5.558;2023-12-14T01:42:47;17.60;73.70
67147;DHT22;70072;52.036;5.558;2023-12-14T01:45:13;17.60;73.10
67147;DHT22;70072;52.036;5.558;2023-12-14T01:47:42;17.60;73.00
67147;DHT22;70072;52.036;5.558;2023-12-14T01:50:08;17.60;73.00
67147;DHT22;70072;52.036;5.558;2023-12-14T01:52:34;17.60;73.00
67147;DHT22;70072;52.036;5.558;2023-12-14T01:54:59;17.60;73.00
67147;DHT22;70072;52.036;5.558;2023-12-14T01:57:28;17.60;73.00
67147;DHT22;70072;52.036;5.558;2023-12-14T01:59:53;17.60;73.00
67147;DHT22;70072;52.036;5.558;2023-12-14T02:02:19;17.60;73.00
67147;DHT22;70072;52.036;5.558;2023-12-14T02:04:44;17.60;72.90
67147;DHT22;70072;52.036;5.558;2023-12-14T02:07:10;17.60;72.90
67147;DHT22;70072;52.036;5.558;2023-12-14T02:09:36;17.60;72.90
67147;DHT22;70072;52.036;5.558;2023-12-14T02:12:05;17.60;72.90
67147;DHT22;70072;52.036;5.558;2023-12-14T02:14:31;17.50;73.40
67147;DHT22;70072;52.036;5.558;2023-12-14T02:16:57;17.60;72.90
67147;DHT22;70072;52.036;5.558;2023-12-14T02:19:22;17.60;72.80
67147;DHT22;70072;52.036;5.558;2023-12-14T02:21:48;17.50;72.70
67147;DHT22;70072;52.036;5.558;2023-12-14T02:24:14;17.50;72.70
67147;DHT22;70072;52.036;5.558;2023-12-14T02:26:39;17.50;72.70
67147;DHT22;70072;52.036;5.558;2023-12-14T02:29:05;17.50;72.60
67147;DHT22;70072;52.036;5.558;2023-12-14T02:31:30;17.50;72.60
67147;DHT22;70072;52.036;5.558;2023-12-14T02:33:56;17.50;72.60
67147;DHT22;70072;52.036;5.558;2023-12-14T02:36:22;17.50;72.50
67147;DHT22;70072;52.036;5.558;2023-12-14T02:38:47;17.50;72.50
67147;DHT22;70072;52.036;5.558;2023-12-14T02:41:13;17.50;72.50
67147;DHT22;70072;52.036;5.558;2023-12-14T02:43:38;17.50;72.50
67147;DHT22;70072;52.036;5.558;2023-12-14T02:46:05;17.50;72.50
67147;DHT22;70072;52.036;5.558;2023-12-14T02:48:31;17.50;72.50
67147;DHT22;70072;52.036;5.558;2023-12-14T02:50:57;17.50;72.50
67147;DHT22;70072;52.036;5.558;2023-12-14T02:53:25;17.50;73.00
67147;DHT22;70072;52.036;5.558;2023-12-14T02:55:50;17.50;72.50
67147;DHT22;70072;52.036;5.558;2023-12-14T02:58:18;17.50;72.40
67147;DHT22;70072;52.036;5.558;2023-12-14T03:00:44;17.50;72.40
67147;DHT22;70072;52.036;5.558;2023-12-14T03:03:10;17.50;72.40
67147;DHT22;70072;52.036;5.558;2023-12-14T03:05:36;17.50;72.40
67147;DHT22;70072;52.036;5.558;2023-12-14T03:08:01;17.50;72.40
67147;DHT22;70072;52.036;5.558;2023-12-14T03:10:27;17.50;72.40
67147;DHT22;70072;52.036;5.558;2023-12-14T03:12:55;17.50;72.30
67147;DHT22;70072;52.036;5.558;2023-12-14T03:15:21;17.50;72.30
67147;DHT22;70072;52.036;5.558;2023-12-14T03:17:47;17.50;72.30
67147;DHT22;70072;52.036;5.558;2023-12-14T03:20:13;17.50;72.40
67147;DHT22;70072;52.036;5.558;2023-12-14T03:22:40;17.50;72.30
67147;DHT22;70072;52.036;5.558;2023-12-14T03:25:06;17.50;72.30
67147;DHT22;70072;52.036;5.558;2023-12-14T03:27:35;17.50;72.30
67147;DHT22;70072;52.036;5.558;2023-12-14T03:30:00;17.50;72.30
67147;DHT22;70072;52.036;5.558;2023-12-14T03:32:26;17.50;72.30
67147;DHT22;70072;52.036;5.558;2023-12-14T03:34:51;17.50;72.30
67147;DHT22;70072;52.036;5.558;2023-12-14T03:37:18;17.50;72.20
67147;DHT22;70072;52.036;5.558;2023-12-14T03:39:43;17.50;72.30
67147;DHT22;70072;52.036;5.558;2023-12-14T03:42:11;17.50;72.20
67147;DHT22;70072;52.036;5.558;2023-12-14T03:44:37;17.50;72.20
67147;DHT22;70072;52.036;5.558;2023-12-14T03:47:03;17.50;72.20
67147;DHT22;70072;52.036;5.558;2023-12-14T03:49:29;17.50;72.20
67147;DHT22;70072;52.036;5.558;2023-12-14T03:51:54;17.50;72.20
67147;DHT22;70072;52.036;5.558;2023-12-14T03:54:20;17.50;72.20
67147;DHT22;70072;52.036;5.558;2023-12-14T03:56:45;17.50;72.20
67147;DHT22;70072;52.036;5.558;2023-12-14T03:59:11;17.50;72.20
67147;DHT22;70072;52.036;5.558;2023-12-14T04:01:36;17.40;72.10
67147;DHT22;70072;52.036;5.558;2023-12-14T04:04:05;17.50;72.10
67147;DHT22;70072;52.036;5.558;2023-12-14T04:06:30;17.50;72.10
67147;DHT22;70072;52.036;5.558;2023-12-14T04:08:56;17.50;72.10
67147;DHT22;70072;52.036;5.558;2023-12-14T04:11:21;17.40;72.10
67147;DHT22;70072;52.036;5.558;2023-12-14T04:13:47;17.40;72.10
67147;DHT22;70072;52.036;5.558;2023-12-14T04:16:15;17.40;72.10
67147;DHT22;70072;52.036;5.558;2023-12-14T04:18:43;17.40;72.10
67147;DHT22;70072;52.036;5.558;2023-12-14T04:21:09;17.40;72.10
67147;DHT22;70072;52.036;5.558;2023-12-14T04:23:37;17.40;72.00
67147;DHT22;70072;52.036;5.558;2023-12-14T04:26:05;17.40;72.00
67147;DHT22;70072;52.036;5.558;2023-12-14T04:28:30;17.40;72.00
67147;DHT22;70072;52.036;5.558;2023-12-14T04:30:56;17.40;72.00
67147;DHT22;70072;52.036;5.558;2023-12-14T04:33:21;17.40;72.00
67147;DHT22;70072;52.036;5.558;2023-12-14T04:35:47;17.40;72.00
67147;DHT22;70072;52.036;5.558;2023-12-14T04:38:13;17.40;72.00
67147;DHT22;70072;52.036;5.558;2023-12-14T04:40:38;17.40;72.00
67147;DHT22;70072;52.036;5.558;2023-12-14T04:43:06;17.40;72.00
67147;DHT22;70072;52.036;5.558;2023-12-14T04:45:32;17.40;72.00
67147;DHT22;70072;52.036;5.558;2023-12-14T04:47:58;17.40;72.00
67147;DHT22;70072;52.036;5.558;2023-12-14T04:50:23;17.40;71.90
67147;DHT22;70072;52.036;5.558;2023-12-14T04:52:49;17.40;71.90
67147;DHT22;70072;52.036;5.558;2023-12-14T04:55:14;17.40;71.90
67147;DHT22;70072;52.036;5.558;2023-12-14T04:57:40;17.40;71.90
67147;DHT22;70072;52.036;5.558;2023-12-14T05:00:06;17.40;72.00
67147;DHT22;70072;52.036;5.558;2023-12-14T05:02:33;17.40;71.90
67147;DHT22;70072;52.036;5.558;2023-12-14T05:04:58;17.40;71.90
67147;DHT22;70072;52.036;5.558;2023-12-14T05:07:24;17.40;71.90
67147;DHT22;70072;52.036;5.558;2023-12-14T05:09:50;17.40;71.90
67147;DHT22;70072;52.036;5.558;2023-12-14T05:12:18;17.40;71.90
67147;DHT22;70072;52.036;5.558;2023-12-14T05:14:44;17.40;71.90
67147;DHT22;70072;52.036;5.558;2023-12-14T05:17:09;17.40;71.90
67147;DHT22;70072;52.036;5.558;2023-12-14T05:19:36;17.40;71.90
67147;DHT22;70072;52.036;5.558;2023-12-14T05:22:02;17.40;71.90
67147;DHT22;70072;52.036;5.558;2023-12-14T05:24:28;17.40;71.90
67147;DHT22;70072;52.036;5.558;2023-12-14T05:26:53;17.40;71.90
67147;DHT22;70072;52.036;5.558;2023-12-14T05:29:19;17.40;72.30
67147;DHT22;70072;52.036;5.558;2023-12-14T05:31:47;17.40;71.80
67147;DHT22;70072;52.036;5.558;2023-12-14T05:34:12;17.40;71.80
67147;DHT22;70072;52.036;5.558;2023-12-14T05:36:38;17.40;71.80
67147;DHT22;70072;52.036;5.558;2023-12-14T05:39:04;17.40;71.80
67147;DHT22;70072;52.036;5.558;2023-12-14T05:41:30;17.40;71.80
67147;DHT22;70072;52.036;5.558;2023-12-14T05:43:55;17.40;71.80
67147;DHT22;70072;52.036;5.558;2023-12-14T05:46:22;17.40;71.80
67147;DHT22;70072;52.036;5.558;2023-12-14T05:48:49;17.40;71.80
67147;DHT22;70072;52.036;5.558;2023-12-14T05:51:27;17.40;71.80
67147;DHT22;70072;52.036;5.558;2023-12-14T05:53:52;17.40;71.70
67147;DHT22;70072;52.036;5.558;2023-12-14T05:56:18;17.40;71.80
67147;DHT22;70072;52.036;5.558;2023-12-14T05:58:46;17.40;71.80
67147;DHT22;70072;52.036;5.558;2023-12-14T06:01:11;17.40;71.80
67147;DHT22;70072;52.036;5.558;2023-12-14T06:03:37;17.40;71.80
67147;DHT22;70072;52.036;5.558;2023-12-14T06:06:02;17.40;71.80
67147;DHT22;70072;52.036;5.558;2023-12-14T06:08:28;17.30;72.30
67147;DHT22;70072;52.036;5.558;2023-12-14T06:10:54;17.40;71.80
67147;DHT22;70072;52.036;5.558;2023-12-14T06:13:19;17.40;71.70
67147;DHT22;70072;52.036;5.558;2023-12-14T06:15:47;17.40;71.80
67147;DHT22;70072;52.036;5.558;2023-12-14T06:18:12;17.30;71.70
67147;DHT22;70072;52.036;5.558;2023-12-14T06:20:39;17.40;71.70
67147;DHT22;70072;52.036;5.558;2023-12-14T06:23:06;17.40;71.80
67147;DHT22;70072;52.036;5.558;2023-12-14T06:25:31;17.40;71.70
67147;DHT22;70072;52.036;5.558;2023-12-14T06:27:57;17.40;71.70
67147;DHT22;70072;52.036;5.558;2023-12-14T06:30:27;17.40;71.70
67147;DHT22;70072;52.036;5.558;2023-12-14T06:32:53;17.40;71.70
67147;DHT22;70072;52.036;5.558;2023-12-14T06:35:18;17.30;71.60
67147;DHT22;70072;52.036;5.558;2023-12-14T06:37:44;17.30;71.70
67147;DHT22;70072;52.036;5.558;2023-12-14T06:40:10;17.30;71.70
67147;DHT22;70072;52.036;5.558;2023-12-14T06:42:36;17.30;71.70
67147;DHT22;70072;52.036;5.558;2023-12-14T06:45:02;17.30;71.60
67147;DHT22;70072;52.036;5.558;2023-12-14T06:47:28;17.30;71.60
67147;DHT22;70072;52.036;5.558;2023-12-14T06:49:54;17.40;71.70
67147;DHT22;70072;52.036;5.558;2023-12-14T06:52:22;17.30;71.60
67147;DHT22;70072;52.036;5.558;2023-12-14T06:54:48;17.30;71.60
67147;DHT22;70072;52.036;5.558;2023-12-14T06:57:14;17.30;71.60
67147;DHT22;70072;52.036;5.558;2023-12-14T06:59:42;17.30;71.60
67147;DHT22;70072;52.036;5.558;2023-12-14T07:02:10;17.30;72.20
67147;DHT22;70072;52.036;5.558;2023-12-14T07:04:36;17.30;71.60
67147;DHT22;70072;52.036;5.558;2023-12-14T07:07:01;17.30;71.60
67147;DHT22;70072;52.036;5.558;2023-12-14T07:09:29;17.30;71.60
67147;DHT22;70072;52.036;5.558;2023-12-14T07:11:55;17.30;71.60
67147;DHT22;70072;52.036;5.558;2023-12-14T07:14:21;17.30;71.60
67147;DHT22;70072;52.036;5.558;2023-12-14T07:16:46;17.30;71.60
67147;DHT22;70072;52.036;5.558;2023-12-14T07:19:12;17.30;71.60
67147;DHT22;70072;52.036;5.558;2023-12-14T07:21:37;17.30;71.60
67147;DHT22;70072;52.036;5.558;2023-12-14T07:24:03;17.30;71.60
67147;DHT22;70072;52.036;5.558;2023-12-14T07:26:29;17.30;71.60
67147;DHT22;70072;52.036;5.558;2023-12-14T07:28:56;17.30;71.60
67147;DHT22;70072;52.036;5.558;2023-12-14T07:31:22;17.30;71.60
67147;DHT22;70072;52.036;5.558;2023-12-14T07:33:48;17.30;71.60
67147;DHT22;70072;52.036;5.558;2023-12-14T07:36:13;17.30;71.60
67147;DHT22;70072;52.036;5.558;2023-12-14T07:38:39;17.30;71.60
67147;DHT22;70072;52.036;5.558;2023-12-14T07:41:07;17.30;71.60
67147;DHT22;70072;52.036;5.558;2023-12-14T07:43:33;17.30;71.60
67147;DHT22;70072;52.036;5.558;2023-12-14T07:45:58;17.30;71.60
67147;DHT22;70072;52.036;5.558;2023-12-14T07:48:24;17.30;71.50
67147;DHT22;70072;52.036;5.558;2023-12-14T07:50:50;17.30;71.50
67147;DHT22;70072;52.036;5.558;2023-12-14T07:53:18;17.30;71.50
67147;DHT22;70072;52.036;5.558;2023-12-14T07:55:43;17.30;71.50
67147;DHT22;70072;52.036;5.558;2023-12-14T07:58:09;17.30;71.50
67147;DHT22;70072;52.036;5.558;2023-12-14T08:00:35;17.30;71.50
67147;DHT22;70072;52.036;5.558;2023-12-14T08:03:00;17.30;71.50
67147;DHT22;70072;52.036;5.558;2023-12-14T08:05:26;17.30;71.50
67147;DHT22;70072;52.036;5.558;2023-12-14T08:07:51;17.30;71.90
67147;DHT22;70072;52.036;5.558;2023-12-14T08:10:18;17.30;71.40
67147;DHT22;70072;52.036;5.558;2023-12-14T08:12:44;17.30;71.40
67147;DHT22;70072;52.036;5.558;2023-12-14T08:15:10;17.30;71.30
67147;DHT22;70072;52.036;5.558;2023-12-14T08:17:37;17.30;71.30
67147;DHT22;70072;52.036;5.558;2023-12-14T08:20:03;17.30;71.20
67147;DHT22;70072;52.036;5.558;2023-12-14T08:22:34;17.30;71.10
67147;DHT22;70072;52.036;5.558;2023-12-14T08:25:00;17.30;71.00
67147;DHT22;70072;52.036;5.558;2023-12-14T08:27:25;17.30;71.00
67147;DHT22;70072;52.036;5.558;2023-12-14T08:29:51;17.30;70.90
67147;DHT22;70072;52.036;5.558;2023-12-14T08:32:16;17.30;70.80
67147;DHT22;70072;52.036;5.558;2023-12-14T08:34:42;17.30;70.70
67147;DHT22;70072;52.036;5.558;2023-12-14T08:37:08;17.30;70.70
67147;DHT22;70072;52.036;5.558;2023-12-14T08:39:33;17.30;70.60
67147;DHT22;70072;52.036;5.558;2023-12-14T08:41:59;17.30;70.60
67147;DHT22;70072;52.036;5.558;2023-12-14T08:44:24;17.30;70.50
67147;DHT22;70072;52.036;5.558;2023-12-14T08:46:50;17.30;70.50
67147;DHT22;70072;52.036;5.558;2023-12-14T08:49:16;17.30;70.40
67147;DHT22;70072;52.036;5.558;2023-12-14T08:51:41;17.30;70.40
67147;DHT22;70072;52.036;5.558;2023-12-14T08:54:07;17.30;70.40
67147;DHT22;70072;52.036;5.558;2023-12-14T08:56:33;17.20;70.30
67147;DHT22;70072;52.036;5.558;2023-12-14T08:58:59;17.30;70.30
67147;DHT22;70072;52.036;5.558;2023-12-14T09:01:25;17.30;70.20
67147;DHT22;70072;52.036;5.558;2023-12-14T09:03:51;17.30;70.20
67147;DHT22;70072;52.036;5.558;2023-12-14T09:06:17;17.30;70.20
67147;DHT22;70072;52.036;5.558;2023-12-14T09:08:44;17.30;70.10
67147;DHT22;70072;52.036;5.558;2023-12-14T09:11:10;17.30;70.10
67147;DHT22;70072;52.036;5.558;2023-12-14T09:13:35;17.30;70.10
67147;DHT22;70072;52.036;5.558;2023-12-14T09:16:03;17.30;70.10
67147;DHT22;70072;52.036;5.558;2023-12-14T09:18:29;17.30;70.20
67147;DHT22;70072;52.036;5.558;2023-12-14T09:20:55;17.30;70.20
67147;DHT22;70072;52.036;5.558;2023-12-14T09:23:21;17.30;70.20
67147;DHT22;70072;52.036;5.558;2023-12-14T09:25:47;17.30;70.20
67147;DHT22;70072;52.036;5.558;2023-12-14T09:28:12;17.30;70.20
67147;DHT22;70072;52.036;5.558;2023-12-14T09:30:38;17.30;70.20
67147;DHT22;70072;52.036;5.558;2023-12-14T09:33:04;17.30;70.20
67147;DHT22;70072;52.036;5.558;2023-12-14T09:35:29;17.30;70.20
67147;DHT22;70072;52.036;5.558;2023-12-14T09:37:55;17.30;70.30
67147;DHT22;70072;52.036;5.558;2023-12-14T09:40:22;17.20;70.20
67147;DHT22;70072;52.036;5.558;2023-12-14T09:42:48;17.30;70.30
67147;DHT22;70072;52.036;5.558;2023-12-14T09:45:16;17.30;70.30
67147;DHT22;70072;52.036;5.558;2023-12-14T09:47:42;17.20;70.30
67147;DHT22;70072;52.036;5.558;2023-12-14T09:50:09;17.30;70.30
67147;DHT22;70072;52.036;5.558;2023-12-14T09:52:35;17.20;70.30
67147;DHT22;70072;52.036;5.558;2023-12-14T09:55:01;17.30;70.30
67147;DHT22;70072;52.036;5.558;2023-12-14T09:57:29;17.30;70.30
67147;DHT22;70072;52.036;5.558;2023-12-14T09:59:55;17.30;70.40
67147;DHT22;70072;52.036;5.558;2023-12-14T10:02:26;17.30;70.40
67147;DHT22;70072;52.036;5.558;2023-12-14T10:04:52;17.30;70.30
67147;DHT22;70072;52.036;5.558;2023-12-14T10:07:19;17.30;70.40
67147;DHT22;70072;52.036;5.558;2023-12-14T10:09:45;17.30;70.40
67147;DHT22;70072;52.036;5.558;2023-12-14T10:12:11;17.30;70.30
67147;DHT22;70072;52.036;5.558;2023-12-14T10:14:37;17.30;70.40
67147;DHT22;70072;52.036;5.558;2023-12-14T10:19:45;17.30;70.20
67147;DHT22;70072;52.036;5.558;2023-12-14T10:22:16;17.30;70.40
67147;DHT22;70072;52.036;5.558;2023-12-14T10:24:49;17.30;70.40
67147;DHT22;70072;52.036;5.558;2023-12-14T10:27:16;17.30;70.30
67147;DHT22;70072;52.036;5.558;2023-12-14T10:29:41;17.30;70.40
67147;DHT22;70072;52.036;5.558;2023-12-14T10:32:10;17.30;70.30
67147;DHT22;70072;52.036;5.558;2023-12-14T10:34:37;17.30;70.30
67147;DHT22;70072;52.036;5.558;2023-12-14T10:37:06;17.30;70.30
67147;DHT22;70072;52.036;5.558;2023-12-14T10:39:35;17.30;70.30
67147;DHT22;70072;52.036;5.558;2023-12-14T10:42:02;17.30;70.30
67147;DHT22;70072;52.036;5.558;2023-12-14T10:44:30;17.30;70.30
67147;DHT22;70072;52.036;5.558;2023-12-14T10:46:58;17.30;70.30
67147;DHT22;70072;52.036;5.558;2023-12-14T10:49:29;17.30;70.30
67147;DHT22;70072;52.036;5.558;2023-12-14T10:51:58;17.30;70.30
67147;DHT22;70072;52.036;5.558;2023-12-14T10:54:25;17.30;70.30
67147;DHT22;70072;52.036;5.558;2023-12-14T10:56:55;17.30;70.30
67147;DHT22;70072;52.036;5.558;2023-12-14T10:59:23;17.30;70.30
67147;DHT22;70072;52.036;5.558;2023-12-14T11:01:55;17.30;70.30
67147;DHT22;70072;52.036;5.558;2023-12-14T11:04:26;17.30;70.30
67147;DHT22;70072;52.036;5.558;2023-12-14T11:06:53;17.30;70.30
67147;DHT22;70072;52.036;5.558;2023-12-14T11:09:19;17.30;70.30
67147;DHT22;70072;52.036;5.558;2023-12-14T11:14:26;17.30;70.20
67147;DHT22;70072;52.036;5.558;2023-12-14T11:17:05;17.30;70.20
67147;DHT22;70072;52.036;5.558;2023-12-14T11:19:31;17.30;70.20
67147;DHT22;70072;52.036;5.558;2023-12-14T11:22:11;17.40;70.30
67147;DHT22;70072;52.036;5.558;2023-12-14T11:24:41;17.40;70.20
67147;DHT22;70072;52.036;5.558;2023-12-14T11:27:09;17.40;70.20
67147;DHT22;70072;52.036;5.558;2023-12-14T11:29:39;17.40;70.20
67147;DHT22;70072;52.036;5.558;2023-12-14T11:32:07;17.40;70.20
67147;DHT22;70072;52.036;5.558;2023-12-14T11:34:32;17.30;70.10
67147;DHT22;70072;52.036;5.558;2023-12-14T11:36:58;17.40;70.20
67147;DHT22;70072;52.036;5.558;2023-12-14T11:39:24;17.40;70.20
67147;DHT22;70072;52.036;5.558;2023-12-14T11:42:04;17.40;70.10
67147;DHT22;70072;52.036;5.558;2023-12-14T11:44:30;17.40;70.10
67147;DHT22;70072;52.036;5.558;2023-12-14T11:46:58;17.40;70.10
67147;DHT22;70072;52.036;5.558;2023-12-14T11:49:25;17.40;70.10
67147;DHT22;70072;52.036;5.558;2023-12-14T11:51:55;17.40;70.10
67147;DHT22;70072;52.036;5.558;2023-12-14T11:54:21;17.40;70.00
67147;DHT22;70072;52.036;5.558;2023-12-14T11:56:47;17.40;70.00
67147;DHT22;70072;52.036;5.558;2023-12-14T11:59:18;17.40;70.00
67147;DHT22;70072;52.036;5.558;2023-12-14T12:01:58;17.40;70.00
67147;DHT22;70072;52.036;5.558;2023-12-14T12:04:24;17.50;69.90
67147;DHT22;70072;52.036;5.558;2023-12-14T12:06:59;17.50;70.00
67147;DHT22;70072;52.036;5.558;2023-12-14T12:09:41;17.50;70.00
67147;DHT22;70072;52.036;5.558;2023-12-14T12:12:10;17.50;69.90
67147;DHT22;70072;52.036;5.558;2023-12-14T12:14:37;17.50;69.90
67147;DHT22;70072;52.036;5.558;2023-12-14T12:17:04;17.50;69.90
67147;DHT22;70072;52.036;5.558;2023-12-14T12:19:35;17.50;69.90
67147;DHT22;70072;52.036;5.558;2023-12-14T12:22:03;17.50;69.90
67147;DHT22;70072;52.036;5.558;2023-12-14T12:24:29;17.50;69.90
67147;DHT22;70072;52.036;5.558;2023-12-14T12:26:55;17.50;70.50
67147;DHT22;70072;52.036;5.558;2023-12-14T12:29:22;17.50;69.90
67147;DHT22;70072;52.036;5.558;2023-12-14T12:31:48;17.50;69.90
67147;DHT22;70072;52.036;5.558;2023-12-14T12:34:14;17.50;69.80
67147;DHT22;70072;52.036;5.558;2023-12-14T12:36:39;17.50;69.80
67147;DHT22;70072;52.036;5.558;2023-12-14T12:39:05;17.50;69.90
67147;DHT22;70072;52.036;5.558;2023-12-14T12:41:32;17.50;69.90
67147;DHT22;70072;52.036;5.558;2023-12-14T12:43:58;17.50;69.80
67147;DHT22;70072;52.036;5.558;2023-12-14T12:46:24;17.50;69.80
67147;DHT22;70072;52.036;5.558;2023-12-14T12:48:50;17.50;69.80
67147;DHT22;70072;52.036;5.558;2023-12-14T12:51:17;17.50;69.90
67147;DHT22;70072;52.036;5.558;2023-12-14T12:53:42;17.50;69.80
67147;DHT22;70072;52.036;5.558;2023-12-14T12:56:10;17.50;69.90
67147;DHT22;70072;52.036;5.558;2023-12-14T12:58:36;17.50;69.90
67147;DHT22;70072;52.036;5.558;2023-12-14T13:01:01;17.50;69.90
67147;DHT22;70072;52.036;5.558;2023-12-14T13:03:27;17.60;69.90
67147;DHT22;70072;52.036;5.558;2023-12-14T13:05:52;17.50;69.90
67147;DHT22;70072;52.036;5.558;2023-12-14T13:08:18;17.50;69.90
67147;DHT22;70072;52.036;5.558;2023-12-14T13:10:44;17.50;69.80
67147;DHT22;70072;52.036;5.558;2023-12-14T13:13:09;17.50;69.90
67147;DHT22;70072;52.036;5.558;2023-12-14T13:15:38;17.50;69.80
67147;DHT22;70072;52.036;5.558;2023-12-14T13:18:04;17.50;69.80
67147;DHT22;70072;52.036;5.558;2023-12-14T13:20:30;17.50;69.90
67147;DHT22;70072;52.036;5.558;2023-12-14T13:22:55;17.50;69.90
67147;DHT22;70072;52.036;5.558;2023-12-14T13:25:21;17.50;69.90
67147;DHT22;70072;52.036;5.558;2023-12-14T13:27:51;17.50;69.80
67147;DHT22;70072;52.036;5.558;2023-12-14T13:30:17;17.50;69.80
67147;DHT22;70072;52.036;5.558;2023-12-14T13:32:45;17.50;69.80
67147;DHT22;70072;52.036;5.558;2023-12-14T13:35:11;17.50;69.80
67147;DHT22;70072;52.036;5.558;2023-12-14T13:37:36;17.50;69.80
67147;DHT22;70072;52.036;5.558;2023-12-14T13:40:02;17.50;69.80
67147;DHT22;70072;52.036;5.558;2023-12-14T13:42:29;17.50;69.80
67147;DHT22;70072;52.036;5.558;2023-12-14T13:44:54;17.50;69.80
67147;DHT22;70072;52.036;5.558;2023-12-14T13:47:20;17.50;69.80
67147;DHT22;70072;52.036;5.558;2023-12-14T13:49:46;17.50;69.80
67147;DHT22;70072;52.036;5.558;2023-12-14T13:52:14;17.50;69.80
67147;DHT22;70072;52.036;5.558;2023-12-14T13:54:39;17.50;69.80
67147;DHT22;70072;52.036;5.558;2023-12-14T13:57:05;17.50;69.80
67147;DHT22;70072;52.036;5.558;2023-12-14T13:59:31;17.60;69.80
67147;DHT22;70072;52.036;5.558;2023-12-14T14:01:59;17.60;69.80
67147;DHT22;70072;52.036;5.558;2023-12-14T14:04:24;17.60;69.70
67147;DHT22;70072;52.036;5.558;2023-12-14T14:06:52;17.60;69.70
67147;DHT22;70072;52.036;5.558;2023-12-14T14:09:20;17.60;69.70
67147;DHT22;70072;52.036;5.558;2023-12-14T14:11:48;17.60;69.70
67147;DHT22;70072;52.036;5.558;2023-12-14T14:14:17;17.60;69.70
67147;DHT22;70072;52.036;5.558;2023-12-14T14:16:45;17.60;69.70
67147;DHT22;70072;52.036;5.558;2023-12-14T14:19:14;17.60;69.70
67147;DHT22;70072;52.036;5.558;2023-12-14T14:21:40;17.60;69.70
67147;DHT22;70072;52.036;5.558;2023-12-14T14:24:06;17.60;69.70
67147;DHT22;70072;52.036;5.558;2023-12-14T14:26:41;17.60;69.70
67147;DHT22;70072;52.036;5.558;2023-12-14T14:29:07;17.60;69.70
67147;DHT22;70072;52.036;5.558;2023-12-14T14:31:37;17.50;69.70
67147;DHT22;70072;52.036;5.558;2023-12-14T14:34:02;17.50;69.70
67147;DHT22;70072;52.036;5.558;2023-12-14T14:36:31;17.50;69.70
67147;DHT22;70072;52.036;5.558;2023-12-14T14:38:57;17.50;69.80
67147;DHT22;70072;52.036;5.558;2023-12-14T14:41:23;17.50;69.80
67147;DHT22;70072;52.036;5.558;2023-12-14T14:43:49;17.50;69.80
67147;DHT22;70072;52.036;5.558;2023-12-14T14:46:17;17.50;69.80
67147;DHT22;70072;52.036;5.558;2023-12-14T14:48:46;17.50;69.80
67147;DHT22;70072;52.036;5.558;2023-12-14T14:51:14;17.50;69.80
67147;DHT22;70072;52.036;5.558;2023-12-14T14:53:42;17.50;69.80
67147;DHT22;70072;52.036;5.558;2023-12-14T14:56:11;17.50;69.80
67147;DHT22;70072;52.036;5.558;2023-12-14T14:58:37;17.50;69.80
67147;DHT22;70072;52.036;5.558;2023-12-14T15:01:03;17.50;69.80
67147;DHT22;70072;52.036;5.558;2023-12-14T15:03:32;17.50;69.80
67147;DHT22;70072;52.036;5.558;2023-12-14T15:06:00;17.50;69.80
67147;DHT22;70072;52.036;5.558;2023-12-14T15:08:29;17.50;69.90
67147;DHT22;70072;52.036;5.558;2023-12-14T15:10:57;17.50;69.90
67147;DHT22;70072;52.036;5.558;2023-12-14T15:13:24;17.50;69.90
67147;DHT22;70072;52.036;5.558;2023-12-14T15:15:50;17.50;69.90
67147;DHT22;70072;52.036;5.558;2023-12-14T15:18:18;17.40;69.80
67147;DHT22;70072;52.036;5.558;2023-12-14T15:20:44;17.50;69.80
67147;DHT22;70072;52.036;5.558;2023-12-14T15:23:14;17.40;69.80
67147;DHT22;70072;52.036;5.558;2023-12-14T15:25:42;17.40;69.80
67147;DHT22;70072;52.036;5.558;2023-12-14T15:28:07;17.40;69.80
67147;DHT22;70072;52.036;5.558;2023-12-14T15:30:33;17.40;69.80